Latest Weather Observations for South Channel Island

IDV60801

Issued at 3:03 am EDT Sunday 11 December 2016 (issued every 30 minutes, with the page automatically refreshed every 10 minutes)

About weather observations | Map of weather stations | Latest weather observations for VIC | Other Formats
Station Details ID: 086344 Name: SOUTH CHANNEL ISLAND Lat: -38.31 Lon: 144.80 Height: 9.0 m
Data from the previous 72 hours. | See also: Recent months for locations in Victoria
Date/Time
EDT
Temp
°C
App
Temp
°C
Dew
Point
°C
Rel
Hum
%
Delta-T
°C
Wind Press
QNH
hPa
Press
MSL
hPa
Rain since
9am
mm
Dir  Spd
km/h
Gust
km/h
Spd
kts
Gust
kts
11/03:00am - - - - - S 13 17 7 9 - - -
11/02:30am - - - - - SSW 17 20 9 11 - - -
11/02:00am - - - - - S 26 32 14 17 - - -
11/01:30am - - - - - SSW 32 35 17 19 - - -
11/01:00am - - - - - SW 33 37 18 20 - - -
11/12:30am - - - - - SW 30 33 16 18 - - -
11/12:00am - - - - - SW 30 35 16 19 - - -
 
Date/Time
EDT
Temp
°C
App
Temp
°C
Dew
Point
°C
Rel
Hum
%
Delta-T
°C
Wind Press
QNH
hPa
Press
MSL
hPa
Rain since
9am
mm
Dir  Spd
km/h
Gust
km/h
Spd
kts
Gust
kts
10/11:30pm - - - - - SW 28 33 15 18 - - -
10/11:00pm - - - - - SSW 28 33 15 18 - - -
10/10:30pm - - - - - SW 30 33 16 18 - - -
10/10:00pm - - - - - SSW 24 28 13 15 - - -
10/09:30pm - - - - - SSW 28 35 15 19 - - -
10/09:00pm - - - - - SSW 26 30 14 16 - - -
10/08:30pm - - - - - SSW 26 32 14 17 - - -
10/08:00pm - - - - - SSW 28 32 15 17 - - -
10/07:30pm - - - - - SSW 26 32 14 17 - - -
10/07:00pm - - - - - SSW 26 32 14 17 - - -
10/06:30pm - - - - - SSW 24 32 13 17 - - -
10/06:00pm - - - - - SSW 26 32 14 17 - - -
10/05:30pm - - - - - SSW 22 26 12 14 - - -
10/05:00pm - - - - - SSW 19 22 10 12 - - -
10/04:30pm - - - - - SSW 24 28 13 15 - - -
10/04:00pm - - - - - SSW 22 26 12 14 - - -
10/03:30pm - - - - - SSW 19 24 10 13 - - -
10/03:00pm - - - - - SSW 22 26 12 14 - - -
10/02:30pm - - - - - SW 20 26 11 14 - - -
10/02:00pm - - - - - SW 17 22 9 12 - - -
10/01:30pm - - - - - SW 19 24 10 13 - - -
10/01:00pm - - - - - SW 13 17 7 9 - - -
10/12:30pm - - - - - WSW 17 22 9 12 - - -
10/12:00pm - - - - - SW 24 30 13 16 - - -
10/11:30am - - - - - WSW 26 32 14 17 - - -
10/11:00am - - - - - WSW 17 19 9 10 - - -
10/10:30am - - - - - WSW 15 19 8 10 - - -
10/10:00am - - - - - WSW 17 26 9 14 - - -
10/09:30am - - - - - WNW 13 19 7 10 - - -
10/09:00am - - - - - W 15 22 8 12 - - -
10/08:30am - - - - - W 13 19 7 10 - - -
10/08:00am - - - - - W 7 11 4 6 - - -
10/07:30am - - - - - SW 20 26 11 14 - - -
10/07:00am - - - - - SW 24 28 13 15 - - -
10/06:30am - - - - - WSW 13 22 7 12 - - -
10/06:00am - - - - - WSW 20 28 11 15 - - -
10/05:30am - - - - - W 26 30 14 16 - - -
10/05:00am - - - - - W 20 28 11 15 - - -
10/04:30am - - - - - SW 20 26 11 14 - - -
10/04:00am - - - - - SW 28 33 15 18 - - -
10/03:30am - - - - - SW 19 26 10 14 - - -
10/03:00am - - - - - SSW 26 32 14 17 - - -
10/02:30am - - - - - SSW 28 39 15 21 - - -
10/02:00am - - - - - SW 20 32 11 17 - - -
10/01:30am - - - - - WSW 28 32 15 17 - - -
10/01:00am - - - - - WSW 30 35 16 19 - - -
10/12:30am - - - - - SW 28 33 15 18 - - -
10/12:00am - - - - - SW 30 33 16 18 - - -
 
Date/Time
EDT
Temp
°C
App
Temp
°C
Dew
Point
°C
Rel
Hum
%
Delta-T
°C
Wind Press
QNH
hPa
Press
MSL
hPa
Rain since
9am
mm
Dir  Spd
km/h
Gust
km/h
Spd
kts
Gust
kts
09/11:30pm - - - - - SSW 24 33 13 18 - - -
09/11:00pm - - - - - SW 32 39 17 21 - - -
09/10:30pm - - - - - SW 33 39 18 21 - - -
09/10:00pm - - - - - SW 35 41 19 22 - - -
09/09:30pm - - - - - SW 39 48 21 26 - - -
09/09:00pm - - - - - SW 39 46 21 25 - - -
09/08:30pm - - - - - SW 39 48 21 26 - - -
09/08:00pm - - - - - SW 37 48 20 26 - - -
09/07:30pm - - - - - SW 41 48 22 26 - - -
09/07:00pm - - - - - SW 39 50 21 27 - - -
09/06:30pm - - - - - SW 43 54 23 29 - - -
09/06:00pm - - - - - SW 46 56 25 30 - - -
09/05:30pm - - - - - SW 46 56 25 30 - - -
09/05:00pm - - - - - SW 46 57 25 31 - - -
09/04:30pm - - - - - SW 46 54 25 29 - - -
09/04:00pm - - - - - SW 43 52 23 28 - - -
09/03:30pm - - - - - SW 44 56 24 30 - - -
09/03:00pm - - - - - SW 48 59 26 32 - - -
09/02:30pm - - - - - SW 41 50 22 27 - - -
09/02:00pm - - - - - WSW 43 52 23 28 - - -
09/01:49pm - - - - - SW 32 50 17 27 - - -
09/01:30pm - - - - - SW 43 52 23 28 - - -
09/01:00pm - - - - - WSW 43 52 23 28 - - -
09/12:30pm - - - - - WSW 48 56 26 30 - - -
09/12:00pm - - - - - SW 43 50 23 27 - - -
09/11:30am - - - - - SW 43 54 23 29 - - -
09/11:00am - - - - - SW 43 56 23 30 - - -
09/10:44am - - - - - SW 48 67 26 36 - - -
09/10:30am - - - - - SW 50 59 27 32 - - -
09/10:00am - - - - - SW 54 67 29 36 - - -
09/09:45am - - - - - SW 46 65 25 35 - - -
09/09:30am - - - - - SSW 46 61 25 33 - - -
09/09:00am - - - - - SW 50 59 27 32 - - -
09/08:30am - - - - - SW 46 54 25 29 - - -
09/08:00am - - - - - SW 54 63 29 34 - - -
09/07:30am - - - - - SW 54 63 29 34 - - -
09/07:00am - - - - - SW 56 69 30 37 - - -
09/06:30am - - - - - SW 54 70 29 38 - - -
09/06:00am - - - - - SW 52 69 28 37 - - -
09/05:34am - - - - - SW 54 72 29 39 - - -
09/05:30am - - - - - SW 57 72 31 39 - - -
09/05:03am - - - - - WSW 56 74 30 40 - - -
09/05:00am - - - - - WSW 56 67 30 36 - - -
09/04:42am - - - - - SW 54 72 29 39 - - -
09/04:30am - - - - - SW 54 70 29 38 - - -
09/04:00am - - - - - SW 61 74 33 40 - - -
09/03:30am - - - - - SW 57 67 31 36 - - -
09/03:00am - - - - - SW 56 70 30 38 - - -
09/02:30am - - - - - SW 57 72 31 39 - - -
09/02:00am - - - - - SW 59 78 32 42 - - -
09/01:50am - - - - - SW 61 76 33 41 - - -
09/01:30am - - - - - SW 52 67 28 36 - - -
09/01:00am - - - - - WSW 52 65 28 35 - - -
09/12:33am - - - - - WSW 56 76 30 41 - - -
09/12:30am - - - - - WSW 54 63 29 34 - - -
09/12:00am - - - - - WSW 46 57 25 31 - - -
 
Date/Time
EDT
Temp
°C
App
Temp
°C
Dew
Point
°C
Rel
Hum
%
Delta-T
°C
Wind Press
QNH
hPa
Press
MSL
hPa
Rain since
9am
mm
Dir  Spd
km/h
Gust
km/h
Spd
kts
Gust
kts
08/11:42pm - - - - - WSW 50 69 27 37 - - -
08/11:30pm - - - - - WSW 54 61 29 33 - - -
08/11:00pm - - - - - WSW 52 82 28 44 - - -
08/10:39pm - - - - - WSW 59 78 32 42 - - -
08/10:30pm - - - - - WSW 63 76 34 41 - - -
08/10:21pm - - - - - WSW 54 76 29 41 - - -
08/10:00pm - - - - - WSW 56 69 30 37 - - -
08/09:41pm - - - - - WSW 61 80 33 43 - - -
08/09:30pm - - - - - SW 65 80 35 43 - - -
08/09:00pm - - - - - WSW 61 76 33 41 - - -
08/08:33pm - - - - - WSW 54 78 29 42 - - -
08/08:30pm - - - - - WSW 52 63 28 34 - - -
08/08:00pm - - - - - WSW 54 70 29 38 - - -
08/07:30pm - - - - - WSW 54 63 29 34 - - -
08/07:08pm - - - - - W 50 76 27 41 - - -
08/07:00pm - - - - - W 50 59 27 32 - - -
08/06:41pm - - - - - WSW 46 65 25 35 - - -
08/06:30pm - - - - - WSW 44 56 24 30 - - -
08/06:00pm - - - - - W 52 61 28 33 - - -
08/05:30pm - - - - - W 54 69 29 37 - - -
08/05:18pm - - - - - W 52 72 28 39 - - -
08/05:00pm - - - - - W 54 67 29 36 - - -
08/04:59pm - - - - - WSW 54 72 29 39 - - -
08/04:30pm - - - - - W 54 65 29 35 - - -
08/04:00pm - - - - - W 56 70 30 38 - - -
08/03:30pm - - - - - W 54 70 29 38 - - -
08/03:07pm - - - - - WNW 57 76 31 41 - - -
08/03:00pm - - - - - W 56 67 30 36 - - -
08/02:53pm - - - - - WNW 59 78 32 42 - - -
08/02:30pm - - - - - W 59 72 32 39 - - -
08/02:17pm - - - - - W 54 72 29 39 - - -
08/02:00pm - - - - - W 61 78 33 42 - - -
08/01:30pm - - - - - W 59 82 32 44 - - -
08/01:28pm - - - - - W 56 80 30 43 - - -
08/01:00pm - - - - - WNW 50 63 27 34 - - -
08/12:36pm - - - - - WNW 54 72 29 39 - - -
08/12:30pm - - - - - WNW 56 70 30 38 - - -
08/12:00pm - - - - - WNW 59 70 32 38 - - -
08/11:30am - - - - - WNW 54 63 29 34 - - -
08/11:00am - - - - - WNW 54 70 29 38 - - -
08/10:38am - - - - - WNW 50 69 27 37 - - -
08/10:30am - - - - - WNW 46 56 25 30 - - -
08/10:06am - - - - - NNW 48 72 26 39 - - -
08/10:04am - - - - - N 46 59 25 32 - - -
08/10:00am - - - - - N 46 54 25 29 - - -
08/09:30am - - - - - N 50 59 27 32 - - -
08/09:00am - - - - - N 54 63 29 34 - - -
08/08:30am - - - - - N 54 61 29 33 - - -
08/08:00am - - - - - N 54 61 29 33 - - -
08/07:30am - - - - - N 52 63 28 34 - - -
08/07:00am - - - - - N 52 59 28 32 - - -
08/06:39am - - - - - N 56 74 30 40 - - -
08/06:30am - - - - - N 52 61 28 33 - - -
08/06:00am - - - - - NNW 48 63 26 34 - - -
08/05:37am - - - - - N 46 67 25 36 - - -
08/05:30am - - - - - N 52 59 28 32 - - -
08/05:18am - - - - - N 43 57 23 31 - - -
08/05:00am - - - - - N 30 39 16 21 - - -
08/04:30am - - - - - NNE 28 33 15 18 - - -
08/04:00am - - - - - NNE 19 22 10 12 - - -
08/03:30am - - - - - NE 24 28 13 15 - - -

Other Formats:

Comma delimited format used in spreadsheet applications
http://www.bom.gov.au/fwo/IDV60801/IDV60801.94853.axf

JavaScript Object Notation format (JSON) in row-major order
http://www.bom.gov.au/fwo/IDV60801/IDV60801.94853.json